FlightSource - Aviation Photo Database

World Wide Airport Lookup


Search by ICAO
Or
Search by City

FlightSource.ca - Aviation Photo Database - Doylestown Airport Information
Airport Identification
Name: Doylestown Airport
ICAO: KDYL
IATA:
Airport Location
City: Doylestown
Region: PA
Country: United States
Continent: North America
Latitude: 40.333
Longitude: -75.1223
Airport Information
Type: Small Airport
Elevation: 394 Feet ASL
Flight Status: KDYL
More Info: KDYL
Airport Weather    
Metar: KDYL 230854Z AUTO 00000KT 5SM BR CLR 05/04 A2986 RMK AO2 SLP114 T00500039 58008 TSNO
TAF:


Advertisement